South Sandisfield, Massachusetts
Current Conditions -  °F | °C
As of 6:53 PM on Sunday 21 Dec 2014 (Local Time) from KBAF Reporting Station
Overcast Overcast  
Wind Chill: 28°   Ceiling: 1700
Heat Index: 33°   Visibility: 10mi
Dew Point: 30°   Wind: 6mph
Humidity: 89%   Direction: 10°N
Pressure: 30.33"   Gusts: NA
Location:  42.1051°N, 73.1239°W
Report Text: KBAF 212353Z 01005KT 10SM OVC017 01/M01 A3033 RMK AO2 SLP278 60000 T00061011 10011 20006 53014
Loading
Personal Weather Stations






























Interactive Weather Map New forecast layout! Learn more

10-Day Weather Forecast

Advertisements
Track Severe Weather on mobile